Time;durP1;ratioP1;P1;durP2;ratioP2;P2;SDS_P1;SDS_P2;PMS_P1;PMS_P2;Temp;Humidity;BMP_temperature;BMP_pressure;BME280_temperature;BME280_humidity;BME280_pressure;Samples;Min_cycle;Max_cycle;Signal;HPM_P1;HPM_P2
2022/08/12 00:44:24;;;;;;;7.22;2.60;;;;;;;16.89;67.98;96462.19;5017105;28;21155;-68
2022/08/12 00:46:53;;;;;;;3.50;2.25;;;;;;;16.92;68.46;96463.63;5018019;28;20205;-69
2022/08/12 00:49:22;;;;;;;4.53;2.53;;;;;;;16.90;68.79;96461.13;5018651;28;20201;-69
2022/08/12 00:52:08;;;;;;;3.08;2.22;;;;;;;17.07;68.77;96466.81;5018011;28;20275;-68
2022/08/12 00:54:38;;;;;;;4.72;2.70;;;;;;;16.87;68.39;96466.09;5017717;28;20230;-67
2022/08/12 00:57:08;;;;;;;4.05;2.42;;;;;;;16.88;68.33;96468.53;5017569;28;20222;-67
2022/08/12 00:59:37;;;;;;;5.53;2.15;;;;;;;16.73;68.88;96465.28;5016113;28;20233;-69
2022/08/12 01:02:06;;;;;;;3.22;2.17;;;;;;;16.51;70.12;96461.25;5017703;28;20195;-69
2022/08/12 01:12:49;;;;;;;3.05;2.00;;;;;;;16.52;70.68;96459.41;5016962;28;20212;-68
2022/08/12 01:15:17;;;;;;;7.35;2.60;;;;;;;16.57;70.79;96456.94;5017148;28;20225;-68
2022/08/12 01:17:45;;;;;;;4.47;2.60;;;;;;;16.35;71.21;96455.56;5017282;28;20225;-69
2022/08/12 01:20:19;;;;;;;4.90;2.17;;;;;;;16.47;71.02;96458.41;5017497;28;20229;-67
2022/08/12 01:23:08;;;;;;;5.90;2.70;;;;;;;16.47;71.15;96453.91;5016896;28;20201;-68
2022/08/12 01:25:41;;;;;;;4.63;2.20;;;;;;;16.45;70.90;96445.31;5017366;28;20609;-68
2022/08/12 01:28:12;;;;;;;4.70;2.47;;;;;;;16.29;71.49;96451.06;5017536;28;20629;-68
2022/08/12 01:30:41;;;;;;;4.25;2.45;;;;;;;16.17;71.92;96452.69;5016565;28;20216;-68
2022/08/12 01:33:14;;;;;;;5.45;2.80;;;;;;;16.21;71.88;96456.56;5013833;28;20209;-67
2022/08/12 01:35:47;;;;;;;4.00;2.42;;;;;;;16.29;71.56;96453.72;5017251;28;20210;-69
2022/08/12 01:38:19;;;;;;;4.75;2.58;;;;;;;16.41;71.43;96448.59;5017060;28;20218;-68
2022/08/12 01:40:51;;;;;;;3.35;2.30;;;;;;;16.31;71.93;96449.03;5016492;28;20316;-67
2022/08/12 01:43:20;;;;;;;3.60;2.45;;;;;;;16.29;71.45;96445.75;5016973;28;20831;-69
2022/08/12 01:46:06;;;;;;;7.30;2.58;;;;;;;16.22;71.57;96446.75;5016288;28;20205;-68
2022/08/12 01:48:49;;;;;;;4.28;2.40;;;;;;;16.33;71.71;96444.31;5016685;28;20198;-68
2022/08/12 01:51:30;;;;;;;3.80;2.60;;;;;;;16.34;72.06;96445.94;5017295;28;20206;-67
2022/08/12 01:54:04;;;;;;;4.07;2.70;;;;;;;16.35;72.11;96433.47;5015965;28;20295;-69
2022/08/12 01:56:40;;;;;;;3.38;2.28;;;;;;;16.36;71.68;96441.25;5016855;28;20212;-69
2022/08/12 02:01:56;;;;;;;5.75;2.67;;;;;;;16.11;71.92;96439.41;5016533;28;20259;-68
2022/08/12 02:13:58;;;;;;;6.13;3.00;;;;;;;16.18;72.48;96422.41;5015592;28;20313;-66
2022/08/12 02:16:39;;;;;;;4.25;2.40;;;;;;;16.13;72.50;96419.56;5016688;28;20206;-69
2022/08/12 02:19:20;;;;;;;3.97;2.33;;;;;;;16.07;72.40;96423.03;5016485;28;20232;-69
2022/08/12 02:21:55;;;;;;;4.15;2.40;;;;;;;15.96;72.91;96423.66;5016491;28;20658;-69
2022/08/12 02:24:23;;;;;;;6.07;2.40;;;;;;;15.88;72.51;96423.88;5016378;28;20232;-67
2022/08/12 02:26:51;;;;;;;4.75;2.63;;;;;;;15.82;73.04;96415.88;5016315;28;20202;-69
2022/08/12 02:29:19;;;;;;;4.20;2.58;;;;;;;15.77;72.70;96414.88;5016441;28;20226;-69
2022/08/12 02:31:46;;;;;;;4.65;2.95;;;;;;;15.69;73.93;96415.09;5016086;28;20201;-69
2022/08/12 02:34:15;;;;;;;4.57;3.00;;;;;;;15.70;73.87;96416.72;5013589;28;20663;-66
2022/08/12 02:36:44;;;;;;;4.03;2.53;;;;;;;15.73;73.71;96414.44;5016345;28;20241;-67
2022/08/12 02:39:14;;;;;;;5.18;2.78;;;;;;;15.74;73.94;96413.44;5016456;28;20225;-67
2022/08/12 02:41:43;;;;;;;5.28;2.80;;;;;;;15.59;74.53;96409.34;5016454;28;20209;-66
2022/08/12 02:44:10;;;;;;;4.38;2.78;;;;;;;15.52;74.52;96413.84;5015412;28;20237;-69
2022/08/12 02:46:41;;;;;;;3.88;2.58;;;;;;;15.52;74.89;96409.34;5017234;28;20217;-69
2022/08/12 02:49:13;;;;;;;5.20;3.13;;;;;;;15.52;74.71;96403.22;5016601;28;20202;-67
2022/08/12 02:51:43;;;;;;;5.22;2.92;;;;;;;15.50;74.75;96402.59;5016124;28;20666;-69
2022/08/12 02:54:09;;;;;;;7.47;2.75;;;;;;;15.32;75.25;96405.03;5016657;28;20279;-67
2022/08/12 02:56:39;;;;;;;6.45;2.70;;;;;;;15.37;75.46;96405.25;5015993;28;20210;-69
2022/08/12 02:59:10;;;;;;;5.38;3.13;;;;;;;15.43;75.00;96399.13;5015787;28;20222;-68
2022/08/12 03:01:47;;;;;;;4.68;3.00;;;;;;;15.50;74.78;96399.94;5016817;28;20300;-69
2022/08/12 03:04:21;;;;;;;5.28;3.22;;;;;;;15.34;75.67;96400.34;5015741;28;20244;-69
2022/08/12 03:06:55;;;;;;;5.85;2.80;;;;;;;15.31;76.17;96400.72;5016242;28;20197;-67
2022/08/12 03:09:23;;;;;;;6.95;3.03;;;;;;;15.20;76.63;96409.28;5016376;28;20206;-69
2022/08/12 03:11:57;;;;;;;4.35;2.85;;;;;;;15.23;77.03;96408.09;5015893;28;20213;-67
2022/08/12 03:14:28;;;;;;;4.50;2.95;;;;;;;15.11;77.15;96401.66;5015088;28;20304;-67
2022/08/12 03:17:10;;;;;;;9.82;3.28;;;;;;;15.02;77.90;96409.03;5016275;28;20206;-69
2022/08/12 03:19:38;;;;;;;3.70;2.67;;;;;;;15.13;77.66;96403.13;5016763;28;21359;-67
2022/08/12 03:22:11;;;;;;;5.75;3.17;;;;;;;15.27;76.80;96405.66;5019840;28;20206;-69
2022/08/12 03:24:41;;;;;;;4.38;2.70;;;;;;;15.30;76.86;96393.81;5019301;28;20253;-67
2022/08/12 03:27:10;;;;;;;4.97;3.10;;;;;;;15.26;76.42;96403.16;5019199;28;20211;-67
2022/08/12 03:29:38;;;;;;;4.72;3.20;;;;;;;15.08;77.08;96400.25;5019385;28;20205;-68
2022/08/12 03:32:06;;;;;;;6.63;3.65;;;;;;;14.98;78.05;96405.13;5016350;28;20260;-69
2022/08/12 03:34:36;;;;;;;4.97;2.92;;;;;;;15.13;76.98;96405.75;5019030;28;20222;-67
2022/08/12 03:37:03;;;;;;;3.83;3.00;;;;;;;15.02;77.64;96409.03;5018794;28;20225;-67
2022/08/12 03:39:40;;;;;;;5.97;3.40;;;;;;;14.92;78.44;96405.91;5019195;28;20217;-68
2022/08/12 03:42:24;;;;;;;5.32;3.13;;;;;;;15.16;77.46;96413.34;5018964;28;20205;-67
2022/08/12 04:01:43;;;;;;;6.13;3.55;;;;;;;15.04;76.85;96412.28;5018885;28;20240;-69
2022/08/12 04:04:10;;;;;;;4.45;3.08;;;;;;;15.27;75.74;96407.47;5017986;28;20230;-68
2022/08/12 04:06:43;;;;;;;5.20;3.05;;;;;;;15.27;76.18;96413.63;5019441;28;20198;-68
2022/08/12 04:09:10;;;;;;;4.38;3.20;;;;;;;15.04;76.91;96411.47;5018847;28;20252;-69
2022/08/12 04:14:25;;;;;;;4.97;2.92;;;;;;;15.28;75.66;96414.41;5017679;28;20236;-69
2022/08/12 04:16:52;;;;;;;6.13;2.97;;;;;;;15.13;76.36;96412.94;5018854;28;20202;-67
2022/08/12 04:19:22;;;;;;;4.60;2.72;;;;;;;15.22;75.40;96417.88;5018420;28;20228;-68
2022/08/12 04:21:49;;;;;;;5.53;2.97;;;;;;;15.14;76.13;96409.25;5017969;28;20213;-68
2022/08/12 04:24:18;;;;;;;4.72;2.92;;;;;;;15.33;75.41;96409.31;5018244;28;20228;-69
2022/08/12 04:26:44;;;;;;;5.93;3.03;;;;;;;15.18;76.04;96408.63;5019032;28;20201;-68
2022/08/12 04:29:11;;;;;;;4.78;3.13;;;;;;;15.16;76.18;96408.03;5017798;28;20670;-67
2022/08/12 04:31:40;;;;;;;5.50;2.88;;;;;;;15.20;77.00;96411.09;5018095;28;20206;-69
2022/08/12 04:34:07;;;;;;;4.25;2.92;;;;;;;15.23;75.39;96408.88;5014418;28;20222;-67
2022/08/12 04:36:37;;;;;;;9.43;3.00;;;;;;;15.08;77.43;96405.53;5018000;28;20198;-69
2022/08/12 04:39:06;;;;;;;6.00;3.47;;;;;;;15.04;77.78;96404.31;5018438;28;20221;-69
2022/08/12 04:41:36;;;;;;;6.93;4.28;;;;;;;15.25;77.02;96407.66;5018336;28;20207;-69
2022/08/12 04:44:03;;;;;;;3.70;2.80;;;;;;;15.31;77.28;96411.34;5016924;28;20232;-68
2022/08/12 04:46:30;;;;;;;4.70;2.65;;;;;;;15.94;76.02;96415.06;5017553;28;20252;-68
2022/08/12 04:48:57;;;;;;;5.07;2.80;;;;;;;16.44;73.31;96411.75;5018202;28;20205;-68
2022/08/12 04:51:24;;;;;;;3.85;2.70;;;;;;;16.95;71.19;96408.09;5018043;28;20206;-68
2022/08/12 04:53:52;;;;;;;5.47;3.10;;;;;;;17.29;69.08;96410.41;5017217;28;20482;-68
2022/08/12 04:56:19;;;;;;;5.50;2.92;;;;;;;17.35;67.78;96412.19;5017833;28;20198;-68
2022/08/12 04:58:46;;;;;;;5.32;2.97;;;;;;;17.50;67.54;96410.91;5017444;28;20222;-69
2022/08/12 05:01:13;;;;;;;4.30;2.72;;;;;;;17.28;67.61;96412.25;5017643;28;21039;-68
2022/08/12 05:03:40;;;;;;;4.55;2.63;;;;;;;17.31;67.86;96419.00;5017130;28;20217;-68
2022/08/12 05:06:07;;;;;;;8.00;2.95;;;;;;;17.28;67.91;96412.25;5017814;28;20224;-68
2022/08/12 05:08:35;;;;;;;4.95;2.72;;;;;;;17.14;68.56;96409.84;5017454;28;20201;-68
2022/08/12 05:11:04;;;;;;;3.00;2.40;;;;;;;17.25;68.31;96415.34;5017819;28;20434;-68
2022/08/12 05:13:36;;;;;;;4.60;2.95;;;;;;;17.30;68.30;96420.03;5016662;28;20228;-68
2022/08/12 05:16:04;;;;;;;9.45;3.40;;;;;;;17.44;67.67;96427.72;5016997;28;20363;-68
2022/08/12 05:18:31;;;;;;;5.25;3.13;;;;;;;17.46;67.49;96425.66;5016882;28;20292;-68
2022/08/12 05:20:58;;;;;;;5.05;2.72;;;;;;;17.73;67.05;96437.78;5017698;28;20202;-68
2022/08/12 05:23:25;;;;;;;6.70;3.30;;;;;;;17.83;67.36;96438.13;5016121;28;20952;-67
2022/08/12 05:25:55;;;;;;;4.35;2.85;;;;;;;17.98;66.45;96444.75;5017618;28;21072;-68
2022/08/12 05:28:24;;;;;;;6.70;2.95;;;;;;;17.99;65.81;96440.25;5016652;28;20898;-68
2022/08/12 05:30:51;;;;;;;8.93;3.08;;;;;;;18.18;65.12;96440.13;5016686;28;20205;-68
2022/08/12 05:33:17;;;;;;;6.60;2.75;;;;;;;18.31;65.54;96441.84;5014704;28;20201;-68
2022/08/12 05:35:46;;;;;;;6.45;3.08;;;;;;;18.62;64.45;96435.38;5017801;28;20209;-68
2022/08/12 05:41:00;;;;;;;5.85;3.17;;;;;;;18.75;64.00;96440.56;5016541;28;20216;-68
2022/08/12 05:43:28;;;;;;;4.43;3.00;;;;;;;18.88;63.55;96439.63;5016633;28;20221;-68
2022/08/12 05:45:55;;;;;;;4.38;2.85;;;;;;;18.76;63.38;96442.22;5017939;28;20677;-68
2022/08/12 05:48:23;;;;;;;3.45;2.60;;;;;;;18.89;63.74;96439.41;5016699;28;20682;-68
2022/08/12 05:50:51;;;;;;;5.88;2.58;;;;;;;18.95;63.29;96436.63;5016902;28;20201;-68
2022/08/12 05:53:17;;;;;;;6.90;2.85;;;;;;;18.96;62.73;96438.28;5016357;28;20205;-68
2022/08/12 05:55:44;;;;;;;4.60;2.63;;;;;;;18.99;63.68;96442.31;5016510;28;20198;-68
2022/08/12 05:58:10;;;;;;;5.03;2.60;;;;;;;19.22;62.88;96432.63;5016684;28;20209;-68
2022/08/12 06:00:38;;;;;;;3.95;2.65;;;;;;;19.44;62.73;96435.63;5017177;28;20206;-68
2022/08/12 06:03:06;;;;;;;4.20;2.33;;;;;;;19.44;62.02;96432.97;5015997;28;20556;-68
2022/08/12 06:05:34;;;;;;;6.38;3.03;;;;;;;19.48;62.17;96434.94;5015288;28;20202;-68
2022/08/12 06:08:04;;;;;;;5.72;2.38;;;;;;;19.52;61.45;96429.97;5016415;28;20209;-68
2022/08/12 06:10:32;;;;;;;6.88;2.65;;;;;;;19.48;61.95;96426.91;5015259;28;20198;-68
2022/08/12 06:12:58;;;;;;;3.88;2.47;;;;;;;19.55;61.70;96437.53;5015808;28;20578;-68
2022/08/12 06:15:25;;;;;;;5.32;2.65;;;;;;;19.49;62.41;96433.06;5016413;28;20233;-68
2022/08/12 06:17:54;;;;;;;5.57;3.08;;;;;;;19.64;61.20;96429.78;5016915;28;20205;-69
2022/08/12 06:20:20;;;;;;;4.38;2.53;;;;;;;19.67;61.59;96441.88;5015836;28;20345;-68
2022/08/12 06:22:47;;;;;;;6.35;2.53;;;;;;;19.73;61.59;96430.28;5015943;28;20206;-68
2022/08/12 06:25:17;;;;;;;6.18;2.50;;;;;;;19.90;61.21;96429.38;5016433;28;20253;-68
2022/08/12 06:27:47;;;;;;;5.50;2.55;;;;;;;19.92;60.61;96438.03;5016201;28;20234;-68
2022/08/12 06:30:14;;;;;;;6.05;2.22;;;;;;;20.14;60.15;96439.09;5015857;28;21223;-68
2022/08/12 06:32:41;;;;;;;5.97;2.35;;;;;;;19.92;59.57;96440.69;5012974;28;20201;-69
2022/08/12 06:35:09;;;;;;;3.63;2.45;;;;;;;20.07;59.65;96440.25;5015976;28;20229;-68
2022/08/12 06:37:40;;;;;;;4.15;2.47;;;;;;;19.98;59.03;96442.44;5016178;28;20212;-68
2022/08/12 06:40:08;;;;;;;3.00;2.17;;;;;;;20.00;59.70;96442.22;5015977;28;20234;-68
2022/08/12 06:42:50;;;;;;;9.82;2.70;;;;;;;19.98;60.53;96434.41;5015089;28;20847;-69
2022/08/12 06:45:18;;;;;;;4.35;2.50;;;;;;;20.09;60.95;96430.16;5016145;28;20245;-68
2022/08/12 06:47:44;;;;;;;4.97;2.53;;;;;;;20.15;60.59;96434.56;5016595;28;20202;-68
2022/08/12 06:50:15;;;;;;;3.17;2.10;;;;;;;20.42;59.39;96436.56;5015494;28;20622;-68
2022/08/12 06:52:41;;;;;;;3.88;2.22;;;;;;;20.47;60.17;96439.38;5014952;28;20205;-68
2022/08/12 06:55:19;;;;;;;3.97;2.60;;;;;;;20.61;59.66;96433.53;5018219;28;20733;-69
2022/08/12 06:57:54;;;;;;;3.55;2.30;;;;;;;20.91;57.82;96431.53;5019998;28;20237;-68
2022/08/12 07:00:22;;;;;;;3.42;2.40;;;;;;;20.76;57.14;96439.25;5019034;28;20228;-68
2022/08/12 07:02:49;;;;;;;5.53;2.45;;;;;;;20.92;57.07;96442.00;5017233;28;20210;-68
2022/08/12 07:05:23;;;;;;;10.10;2.83;;;;;;;21.06;56.26;96442.56;5020198;28;20218;-69
2022/08/12 07:07:50;;;;;;;7.95;2.50;;;;;;;21.15;56.67;96444.63;5019546;28;20310;-68
2022/08/12 07:10:16;;;;;;;4.97;2.50;;;;;;;21.07;57.16;96438.84;5019725;28;20566;-68
2022/08/12 07:12:44;;;;;;;2.88;2.13;;;;;;;21.06;56.32;96442.56;5019202;28;20209;-68
2022/08/12 07:15:10;;;;;;;5.95;2.50;;;;;;;21.19;56.14;96442.31;5019239;28;21079;-68
2022/08/12 07:17:40;;;;;;;4.47;2.50;;;;;;;21.22;56.24;96442.66;5019849;28;20201;-69
2022/08/12 07:20:11;;;;;;;2.42;1.80;;;;;;;21.44;55.79;96443.63;5019744;28;20222;-68
2022/08/12 07:22:40;;;;;;;2.75;1.83;;;;;;;21.54;56.02;96441.19;5019453;28;20209;-68
2022/08/12 07:27:54;;;;;;;5.15;2.33;;;;;;;21.81;56.23;96439.53;5019249;28;20237;-68
2022/08/12 07:30:20;;;;;;;3.10;2.17;;;;;;;21.79;55.28;96438.94;5019590;28;20299;-68
2022/08/12 07:32:50;;;;;;;3.67;2.10;;;;;;;21.82;53.22;96438.47;5018960;28;20222;-68
2022/08/12 07:35:18;;;;;;;3.97;2.10;;;;;;;21.95;52.04;96435.50;5019039;28;20661;-68
2022/08/12 07:37:49;;;;;;;5.57;2.35;;;;;;;22.11;53.30;96439.00;5019206;28;20201;-69
2022/08/12 07:40:17;;;;;;;3.05;2.20;;;;;;;22.04;52.47;96429.47;5019260;28;20226;-69
2022/08/12 07:42:44;;;;;;;4.15;2.10;;;;;;;22.28;54.56;96428.28;5018252;28;20320;-69
2022/08/12 07:45:12;;;;;;;2.63;2.00;;;;;;;22.37;51.86;96430.31;5019237;28;20230;-68
2022/08/12 07:47:42;;;;;;;4.63;2.28;;;;;;;22.57;51.64;96424.44;5019133;28;20241;-68
2022/08/12 07:50:09;;;;;;;3.47;2.13;;;;;;;22.47;51.24;96425.09;5018777;28;20194;-68
2022/08/12 07:52:37;;;;;;;3.08;2.00;;;;;;;22.46;51.96;96423.47;5019071;28;20201;-68
2022/08/12 07:55:06;;;;;;;4.32;2.05;;;;;;;22.47;50.01;96425.09;5018925;28;20241;-69
2022/08/12 07:57:32;;;;;;;3.40;1.98;;;;;;;22.63;51.45;96418.88;5018572;28;20202;-69
2022/08/12 08:00:03;;;;;;;2.78;1.92;;;;;;;22.82;51.01;96423.75;5018717;28;20620;-68
2022/08/12 08:02:32;;;;;;;5.30;2.05;;;;;;;22.87;48.02;96426.50;5016608;28;20236;-69
2022/08/12 08:04:59;;;;;;;3.72;2.05;;;;;;;22.93;48.58;96422.81;5018341;28;20229;-69
2022/08/12 08:07:28;;;;;;;4.68;2.03;;;;;;;22.88;48.66;96424.63;5017576;28;20598;-69
2022/08/12 08:09:56;;;;;;;4.25;1.75;;;;;;;23.08;47.49;96416.88;5019504;28;20202;-69
2022/08/12 08:15:09;;;;;;;2.83;1.40;;;;;;;23.28;46.97;96411.72;5018112;28;20380;-69
2022/08/12 08:17:36;;;;;;;3.60;1.77;;;;;;;23.28;48.32;96403.66;5019089;28;20248;-69
2022/08/12 08:20:04;;;;;;;8.65;2.50;;;;;;;23.45;46.49;96408.69;5018525;28;20266;-69
2022/08/12 08:22:33;;;;;;;2.58;1.85;;;;;;;23.71;48.34;96412.50;5017647;28;20659;-69
2022/08/12 08:25:01;;;;;;;3.58;2.08;;;;;;;23.64;45.67;96411.88;5018543;28;20221;-68
2022/08/12 08:27:44;;;;;;;2.67;1.73;;;;;;;23.88;45.40;96419.41;5018131;28;20287;-68
2022/08/12 08:30:11;;;;;;;5.25;1.90;;;;;;;23.89;45.95;96415.63;5018169;28;20202;-68
2022/08/12 08:32:39;;;;;;;3.03;2.00;;;;;;;23.98;46.62;96419.47;5018404;28;21108;-68
2022/08/12 08:35:09;;;;;;;3.30;1.90;;;;;;;24.22;47.69;96418.91;5018040;28;20713;-67
2022/08/12 08:37:35;;;;;;;6.07;2.00;;;;;;;24.26;49.37;96424.56;5017987;28;20229;-69
2022/08/12 08:42:46;;;;;;;4.00;1.85;;;;;;;24.30;44.41;96425.69;5017498;28;20770;-69
2022/08/12 08:45:14;;;;;;;3.92;1.80;;;;;;;24.37;45.31;96419.00;5018184;28;20221;-68
2022/08/12 08:47:44;;;;;;;2.55;1.73;;;;;;;24.69;44.44;96417.94;5017818;28;20287;-67
2022/08/12 08:50:13;;;;;;;5.20;1.70;;;;;;;24.73;44.40;96413.66;5018267;28;20209;-68
2022/08/12 08:52:40;;;;;;;4.97;1.92;;;;;;;24.68;44.99;96416.31;5017071;28;20252;-68
2022/08/12 08:55:08;;;;;;;3.70;1.75;;;;;;;24.50;43.68;96415.09;5017899;28;20313;-67
2022/08/12 08:57:34;;;;;;;2.40;1.52;;;;;;;24.67;43.57;96412.00;5018469;28;20202;-68
2022/08/12 09:00:03;;;;;;;4.55;2.28;;;;;;;24.65;44.56;96411.44;5017807;28;20349;-68
2022/08/12 09:02:29;;;;;;;3.92;1.75;;;;;;;24.75;43.60;96414.19;5015091;28;20206;-68
2022/08/12 09:04:55;;;;;;;8.20;1.88;;;;;;;24.81;42.64;96402.38;5018342;28;20740;-67
2022/08/12 09:07:22;;;;;;;2.65;1.65;;;;;;;24.72;43.21;96409.34;5017025;28;20572;-69
2022/08/12 09:09:50;;;;;;;4.45;2.03;;;;;;;25.05;42.15;96411.72;5017355;28;20209;-67
2022/08/12 09:15:02;;;;;;;7.10;1.73;;;;;;;25.22;43.69;96407.72;5016717;28;20754;-67
2022/08/12 09:17:29;;;;;;;6.00;1.70;;;;;;;25.17;42.21;96404.19;5016021;28;20209;-68
2022/08/12 09:19:55;;;;;;;1.92;1.50;;;;;;;25.43;40.64;96408.63;5017475;28;20225;-67
2022/08/12 09:22:22;;;;;;;2.60;1.67;;;;;;;25.41;40.51;96411.56;5017022;28;20206;-69
2022/08/12 09:24:48;;;;;;;1.42;1.23;;;;;;;25.39;38.27;96407.53;5017189;28;20218;-67
2022/08/12 09:27:15;;;;;;;3.78;1.75;;;;;;;25.46;39.23;96414.31;5017268;28;20205;-67
2022/08/12 09:29:42;;;;;;;6.47;1.60;;;;;;;25.42;39.59;96407.81;5017036;28;20216;-68
2022/08/12 09:32:10;;;;;;;4.25;1.50;;;;;;;25.45;39.66;96409.97;5016955;28;20213;-67
2022/08/12 09:34:36;;;;;;;2.53;1.50;;;;;;;25.38;37.79;96408.59;5016598;28;20325;-68
2022/08/12 09:37:03;;;;;;;4.40;1.42;;;;;;;25.47;39.69;96410.53;5017221;28;20284;-70
2022/08/12 09:39:30;;;;;;;5.20;1.73;;;;;;;25.70;39.25;96412.78;5017031;28;20245;-70
2022/08/12 09:47:27;;;;;;;3.38;1.45;;;;;;;26.10;37.96;96410.94;5006031;28;20198;-68
2022/08/12 09:49:54;;;;;;;2.97;1.52;;;;;;;25.93;36.59;96398.78;5017047;28;20247;-69
2022/08/12 09:52:22;;;;;;;3.83;1.58;;;;;;;26.08;37.94;96391.50;5016570;28;20561;-68
2022/08/12 09:54:48;;;;;;;5.75;1.50;;;;;;;26.08;38.46;96390.69;5016817;28;20217;-70
2022/08/12 09:57:18;;;;;;;2.40;1.45;;;;;;;26.17;37.90;96391.75;5016678;28;20206;-68
2022/08/12 09:59:44;;;;;;;4.22;1.50;;;;;;;25.90;36.48;96388.50;5017021;28;20329;-68
2022/08/12 10:02:11;;;;;;;3.97;1.65;;;;;;;26.02;38.62;96389.06;5014864;28;20201;-67
2022/08/12 10:04:47;;;;;;;5.03;1.70;;;;;;;26.14;37.34;96379.59;5016320;28;20322;-70
2022/08/12 10:07:14;;;;;;;5.07;1.50;;;;;;;26.19;37.06;96376.09;5017039;28;20294;-66
2022/08/12 10:09:41;;;;;;;2.00;1.50;;;;;;;26.01;37.08;96376.66;5016762;28;20208;-68
2022/08/12 10:14:52;;;;;;;2.83;1.33;;;;;;;26.05;34.71;96381.22;5016973;28;20232;-69
2022/08/12 10:17:21;;;;;;;2.08;1.60;;;;;;;26.38;36.21;96383.41;5016685;28;20224;-70
2022/08/12 10:19:51;;;;;;;2.85;1.67;;;;;;;26.65;37.32;96378.50;5016277;28;20232;-68
2022/08/12 10:22:17;;;;;;;7.50;1.20;;;;;;;26.64;36.06;96374.19;5015600;28;20737;-69
2022/08/12 10:29:35;;;;;;;1.55;1.42;;;;;;;26.74;36.06;96374.16;5017912;28;20220;-68
2022/08/12 10:30:16;;;;;;;3.00;1.50;;;;;;;26.87;34.96;96366.31;5018148;28;20213;-70
2022/08/12 10:32:54;;;;;;;3.03;1.58;;;;;;;26.83;36.91;96367.91;5020162;28;20198;-70
2022/08/12 10:35:21;;;;;;;2.95;1.40;;;;;;;26.80;36.59;96365.78;5020786;28;20232;-68
2022/08/12 10:37:48;;;;;;;6.13;1.70;;;;;;;27.01;37.10;96353.03;5020785;28;20197;-69
2022/08/12 10:40:14;;;;;;;4.75;1.58;;;;;;;26.78;36.11;96364.41;5020095;28;20229;-68
2022/08/12 10:45:25;;;;;;;2.72;1.50;;;;;;;26.61;37.23;96361.22;5020163;28;20232;-70
2022/08/12 10:47:52;;;;;;;3.30;1.40;;;;;;;26.60;36.63;96356.88;5020598;28;20206;-70
2022/08/12 10:50:20;;;;;;;2.47;1.65;;;;;;;26.70;35.31;96356.88;5020706;28;20198;-68
2022/08/12 10:52:48;;;;;;;3.20;1.50;;;;;;;27.24;35.12;96351.31;5019785;28;20204;-69
2022/08/12 10:55:15;;;;;;;1.73;1.58;;;;;;;27.54;36.69;96344.91;5020102;28;20225;-68
2022/08/12 10:57:42;;;;;;;1.92;1.63;;;;;;;27.13;35.13;96347.00;5020377;28;20202;-69
2022/08/12 11:00:10;;;;;;;2.05;1.42;;;;;;;26.91;34.48;96353.84;5020128;28;20271;-69
2022/08/12 11:02:36;;;;;;;2.22;1.33;;;;;;;27.23;35.89;96340.75;5015834;28;20206;-68
2022/08/12 11:05:03;;;;;;;3.88;1.60;;;;;;;27.27;35.09;96348.03;5019917;28;20217;-67
2022/08/12 11:07:34;;;;;;;1.90;1.48;;;;;;;27.51;37.16;96335.47;5019178;28;20202;-70
2022/08/12 11:10:02;;;;;;;6.05;1.55;;;;;;;27.11;35.49;96337.56;5019546;28;20195;-68
2022/08/12 11:12:29;;;;;;;4.65;1.58;;;;;;;27.26;36.01;96332.88;5018960;28;20202;-70
2022/08/12 11:14:58;;;;;;;3.40;1.73;;;;;;;27.30;35.82;96333.97;5019657;28;21275;-69
2022/08/12 11:17:25;;;;;;;3.67;1.63;;;;;;;27.39;34.73;96335.00;5019028;28;20209;-68
2022/08/12 11:19:51;;;;;;;4.43;1.58;;;;;;;27.27;35.40;96331.00;5019655;28;20202;-69
2022/08/12 11:22:18;;;;;;;3.55;1.80;;;;;;;26.52;35.51;96333.94;5018844;28;20199;-69
2022/08/12 11:24:44;;;;;;;2.53;1.50;;;;;;;26.95;37.01;96329.75;5018973;28;20221;-69
2022/08/12 11:27:12;;;;;;;3.85;1.58;;;;;;;26.92;35.56;96322.19;5019757;28;20206;-69
2022/08/12 11:29:38;;;;;;;3.30;1.50;;;;;;;26.36;36.72;96334.22;5018552;28;20201;-69
2022/08/12 11:32:06;;;;;;;2.53;1.58;;;;;;;26.11;35.94;96333.44;5019461;28;20202;-69
2022/08/12 11:34:32;;;;;;;4.10;1.40;;;;;;;25.76;37.77;96330.69;5018918;28;20233;-69
2022/08/12 11:37:03;;;;;;;3.55;1.35;;;;;;;25.57;38.40;96329.59;5019920;28;20210;-69
2022/08/12 11:39:31;;;;;;;2.78;1.40;;;;;;;26.13;38.43;96329.38;5018561;28;20205;-70
2022/08/12 11:41:57;;;;;;;3.47;1.35;;;;;;;26.04;38.38;96328.31;5018775;28;20232;-69
2022/08/12 11:44:25;;;;;;;2.50;1.38;;;;;;;25.78;38.10;96316.97;5018531;28;20229;-69
2022/08/12 11:46:53;;;;;;;2.55;1.50;;;;;;;26.13;37.21;96321.28;5019447;28;21002;-69
2022/08/12 11:49:22;;;;;;;2.38;1.30;;;;;;;26.71;36.27;96315.25;5018746;28;20571;-68
2022/08/12 11:51:48;;;;;;;2.95;1.52;;;;;;;27.05;36.37;96310.78;5018819;28;20305;-68
2022/08/12 11:54:15;;;;;;;2.03;1.40;;;;;;;27.41;34.99;96308.44;5018265;28;20237;-68
2022/08/12 11:56:41;;;;;;;2.40;1.35;;;;;;;27.55;34.54;96312.16;5019116;28;20202;-69
2022/08/12 11:59:08;;;;;;;1.92;1.40;;;;;;;27.52;34.67;96310.00;5018671;28;20936;-69
2022/08/12 12:01:36;;;;;;;4.53;1.20;;;;;;;27.67;35.60;96311.81;5018218;28;20237;-69
2022/08/12 12:04:02;;;;;;;2.95;1.23;;;;;;;27.49;35.21;96315.16;5014950;28;20233;-69
2022/08/12 12:06:29;;;;;;;5.10;1.30;;;;;;;27.31;37.09;96305.00;5018935;28;20202;-68
2022/08/12 12:08:55;;;;;;;4.07;1.48;;;;;;;27.05;34.77;96306.22;5018778;28;20670;-69
2022/08/12 12:11:22;;;;;;;2.38;1.27;;;;;;;27.06;34.98;96301.59;5018378;28;20209;-69
2022/08/12 12:13:49;;;;;;;2.28;1.27;;;;;;;26.80;35.19;96300.06;5017932;28;20236;-69
2022/08/12 12:16:16;;;;;;;7.53;1.30;;;;;;;26.35;36.25;96315.59;5018671;28;20240;-67
2022/08/12 12:18:44;;;;;;;2.42;1.50;;;;;;;26.31;36.06;96307.19;5017607;28;20206;-69
2022/08/12 12:21:10;;;;;;;1.95;1.40;;;;;;;26.36;35.87;96307.19;5018310;28;20229;-70
2022/08/12 12:23:37;;;;;;;2.75;1.40;;;;;;;26.76;35.46;96290.88;5017954;28;20233;-69
2022/08/12 12:26:04;;;;;;;5.07;1.40;;;;;;;27.47;35.95;96299.22;5018574;28;20213;-69
2022/08/12 12:28:31;;;;;;;1.77;1.45;;;;;;;26.91;36.02;96301.63;5017888;28;20213;-67
2022/08/12 12:30:57;;;;;;;2.17;1.48;;;;;;;27.03;35.61;96296.75;5018228;28;20229;-66
2022/08/12 12:33:24;;;;;;;1.90;1.30;;;;;;;26.93;35.48;96297.56;5017107;28;20590;-68
2022/08/12 12:35:51;;;;;;;4.70;1.40;;;;;;;26.71;36.00;96297.09;5017300;28;20198;-67
2022/08/12 12:38:18;;;;;;;2.67;1.35;;;;;;;26.93;35.66;96294.06;5018160;28;20197;-70
2022/08/12 12:40:47;;;;;;;2.45;1.55;;;;;;;27.23;35.72;96292.06;5017441;28;20222;-69
2022/08/12 12:43:14;;;;;;;2.38;1.48;;;;;;;26.98;36.28;96291.38;5016239;28;20233;-69
2022/08/12 12:45:42;;;;;;;2.15;1.30;;;;;;;26.77;35.95;96287.91;5017287;28;20205;-70
2022/08/12 12:48:10;;;;;;;2.40;1.40;;;;;;;26.53;35.83;96291.50;5016717;28;20202;-67
2022/08/12 12:50:40;;;;;;;6.43;1.70;;;;;;;26.70;36.08;96281.16;5016199;28;20650;-69
2022/08/12 12:53:11;;;;;;;1.92;1.40;;;;;;;27.25;35.30;96274.44;5015561;28;20210;-68
2022/08/12 12:55:38;;;;;;;2.08;1.30;;;;;;;27.80;36.22;96271.34;5017209;28;20767;-67
2022/08/12 12:58:10;;;;;;;2.50;1.13;;;;;;;28.06;35.34;96270.06;5017724;28;20208;-69
2022/08/12 13:00:41;;;;;;;2.00;1.48;;;;;;;27.95;35.02;96271.25;5016702;28;20270;-69
2022/08/12 13:03:07;;;;;;;2.78;1.20;;;;;;;27.90;35.23;96276.69;5013523;28;20705;-67
2022/08/12 13:05:37;;;;;;;2.20;1.08;;;;;;;28.01;32.55;96283.66;5017530;28;20205;-69
2022/08/12 13:08:23;;;;;;;2.92;1.08;;;;;;;27.72;31.15;96278.22;5017124;28;20202;-69
2022/08/12 13:10:50;;;;;;;1.10;0.90;;;;;;;27.98;31.39;96274.19;5017316;28;20208;-69
2022/08/12 13:13:18;;;;;;;2.40;1.08;;;;;;;28.12;33.13;96274.31;5016045;28;20210;-67
2022/08/12 13:15:45;;;;;;;3.28;1.13;;;;;;;27.94;30.84;96281.28;5016474;28;20202;-67
2022/08/12 13:18:11;;;;;;;2.17;1.13;;;;;;;28.37;33.93;96270.31;5016920;28;20386;-67
2022/08/12 13:20:38;;;;;;;2.10;1.10;;;;;;;28.36;32.12;96271.41;5016891;28;20504;-67
2022/08/12 13:23:06;;;;;;;1.20;1.10;;;;;;;28.27;32.23;96279.66;5016083;28;20212;-68
2022/08/12 13:25:35;;;;;;;4.00;1.30;;;;;;;28.07;31.80;96277.13;5016336;28;20249;-70
2022/08/12 13:28:02;;;;;;;1.48;0.95;;;;;;;28.33;33.20;96275.81;5016734;28;20206;-67
2022/08/12 13:30:30;;;;;;;1.42;0.90;;;;;;;27.75;33.86;96269.50;5016125;28;20249;-69
2022/08/12 13:32:57;;;;;;;1.30;1.00;;;;;;;26.93;32.68;96269.72;5015691;28;20216;-70